createdAt,value
2022-11-29T07:45:09.041Z,17.80
2022-11-29T07:47:37.302Z,16.75
2022-11-29T07:50:05.408Z,19.38
2022-11-29T07:52:32.953Z,22.35
2022-11-29T07:55:01.549Z,18.10
2022-11-29T07:57:29.263Z,19.70
2022-11-29T07:59:56.947Z,17.27
2022-11-29T08:02:28.980Z,17.90
2022-11-29T08:04:56.950Z,23.10
2022-11-29T08:07:24.733Z,21.85
2022-11-29T08:09:52.761Z,17.90
2022-11-29T08:12:20.416Z,18.00
2022-11-29T08:14:48.252Z,23.70
2022-11-29T08:17:16.416Z,17.17
2022-11-29T08:19:44.389Z,18.98
2022-11-29T08:22:12.754Z,19.48
2022-11-29T08:24:40.785Z,22.27
2022-11-29T08:27:08.456Z,20.92
2022-11-29T08:29:36.141Z,18.88
2022-11-29T08:32:04.118Z,22.58
2022-11-29T08:34:32.049Z,27.50
2022-11-29T08:36:59.955Z,21.08
2022-11-29T08:39:27.973Z,24.23
2022-11-29T08:41:55.828Z,18.95
2022-11-29T08:44:23.970Z,21.10
2022-11-29T08:47:10.118Z,24.67
2022-11-29T08:49:58.349Z,25.92
2022-11-29T08:52:44.662Z,27.75
2022-11-29T08:55:12.643Z,25.52
2022-11-29T08:57:41.224Z,26.20
2022-11-29T09:00:10.660Z,21.30
2022-11-29T09:02:38.665Z,22.15
2022-11-29T09:05:06.781Z,23.38
2022-11-29T09:07:34.478Z,21.55
2022-11-29T09:10:05.540Z,22.00
2022-11-29T09:12:33.788Z,24.02
2022-11-29T09:15:01.638Z,23.90
2022-11-29T09:17:29.602Z,21.65
2022-11-29T09:19:57.291Z,23.35
2022-11-29T09:22:24.974Z,21.75
2022-11-29T09:24:52.572Z,21.38
2022-11-29T09:27:20.257Z,21.33
2022-11-29T09:29:48.337Z,22.20
2022-11-29T09:32:16.106Z,19.67
2022-11-29T09:34:43.968Z,16.60
2022-11-29T09:37:12.495Z,18.95
2022-11-29T09:39:41.610Z,19.30
2022-11-29T09:42:36.898Z,16.67
2022-11-29T09:45:10.905Z,19.08
2022-11-29T09:47:47.639Z,17.17
2022-11-29T09:50:29.164Z,18.08
2022-11-29T09:53:15.267Z,17.77
2022-11-29T09:56:01.160Z,15.98
2022-11-29T09:58:30.830Z,16.88
2022-11-29T10:01:01.218Z,14.57
2022-11-29T10:03:41.694Z,16.17
2022-11-29T10:06:29.229Z,19.17
2022-11-29T10:09:17.124Z,14.00
2022-11-29T10:12:13.380Z,13.63
2022-11-29T10:15:11.480Z,14.05
2022-11-29T10:17:42.272Z,14.48
2022-11-29T10:20:17.523Z,16.02
2022-11-29T10:23:10.176Z,14.07
2022-11-29T10:25:44.722Z,16.90
2022-11-29T10:28:19.626Z,14.07
2022-11-29T10:30:47.790Z,15.45
2022-11-29T10:33:35.365Z,15.32
2022-11-29T10:36:05.562Z,12.10
2022-11-29T10:38:33.169Z,12.05
2022-11-29T10:41:08.957Z,12.52
2022-11-29T10:43:37.554Z,8.57
2022-11-29T10:46:05.274Z,8.50
2022-11-29T10:48:33.729Z,6.00
2022-11-29T10:51:02.210Z,9.95
2022-11-29T10:53:36.165Z,8.75
2022-11-29T10:56:14.359Z,10.77
2022-11-29T10:59:03.198Z,10.88
2022-11-29T11:01:51.489Z,11.73
2022-11-29T11:04:35.753Z,8.30
2022-11-29T11:07:04.793Z,10.60
2022-11-29T11:09:42.552Z,7.90
2022-11-29T11:12:16.299Z,11.93
2022-11-29T11:14:44.522Z,11.05
2022-11-29T11:17:19.807Z,14.73
2022-11-29T11:20:17.934Z,7.47
2022-11-29T11:22:56.854Z,10.63
2022-11-29T11:25:39.111Z,9.05
2022-11-29T11:28:20.507Z,11.02
2022-11-29T11:30:58.659Z,9.68
2022-11-29T11:33:30.309Z,10.48
2022-11-29T11:36:05.889Z,8.07
2022-11-29T11:38:38.366Z,9.15
2022-11-29T11:41:46.499Z,10.30
2022-11-29T11:47:19.886Z,10.60
2022-11-29T11:49:50.554Z,9.95
2022-11-29T11:52:28.185Z,11.07
2022-11-29T11:54:58.451Z,9.38
2022-11-29T11:57:26.324Z,9.45
2022-11-29T11:59:55.628Z,11.15
2022-11-29T12:02:36.637Z,12.07
2022-11-29T12:05:07.281Z,8.65
2022-11-29T12:08:06.605Z,11.95
2022-11-29T12:10:29.838Z,13.43
2022-11-29T12:12:57.545Z,10.55
2022-11-29T12:15:28.795Z,13.15
2022-11-29T12:18:06.374Z,10.48
2022-11-29T12:20:53.777Z,9.90
2022-11-29T12:23:30.513Z,9.88
2022-11-29T12:26:04.616Z,11.93
2022-11-29T12:28:33.913Z,8.52
2022-11-29T12:31:24.698Z,10.20
2022-11-29T12:34:16.540Z,11.47
2022-11-29T12:36:47.405Z,11.27
2022-11-29T12:39:30.305Z,12.57
2022-11-29T12:42:07.951Z,13.57
2022-11-29T12:44:47.845Z,14.70
2022-11-29T12:47:37.343Z,9.93
2022-11-29T12:50:31.058Z,12.07
2022-11-29T12:53:27.247Z,12.15
2022-11-29T12:56:16.602Z,14.52
2022-11-29T12:58:53.500Z,12.40
2022-11-29T13:01:37.194Z,16.08
2022-11-29T13:04:26.573Z,12.20
2022-11-29T13:07:12.882Z,14.77
2022-11-29T13:09:47.162Z,13.63
2022-11-29T13:12:39.447Z,9.45
2022-11-29T13:15:30.887Z,13.50
2022-11-29T13:18:03.734Z,15.07
2022-11-29T13:20:33.974Z,11.60
2022-11-29T13:23:39.158Z,12.25
2022-11-29T13:26:14.188Z,13.75
2022-11-29T13:28:42.526Z,14.55
2022-11-29T13:31:15.891Z,11.43
2022-11-29T13:34:26.808Z,10.32
2022-11-29T13:37:40.250Z,9.60
2022-11-29T13:40:34.165Z,8.23
2022-11-29T13:43:21.960Z,4.78
2022-11-29T13:46:46.949Z,7.60
2022-11-29T13:49:24.247Z,9.65
2022-11-29T13:52:04.498Z,8.75
2022-11-29T13:54:32.697Z,8.18
2022-11-29T13:57:03.671Z,8.55
2022-11-29T13:59:32.852Z,9.07
2022-11-29T14:02:00.677Z,11.23
2022-11-29T14:04:36.709Z,8.52
2022-11-29T14:07:05.321Z,9.02
2022-11-29T14:09:41.463Z,9.98
2022-11-29T14:12:22.182Z,10.50
2022-11-29T14:15:01.728Z,11.37
2022-11-29T14:17:45.645Z,11.20
2022-11-29T14:20:25.954Z,6.60
2022-11-29T14:23:04.238Z,10.15
2022-11-29T14:25:51.643Z,7.63
2022-11-29T14:28:23.034Z,8.15
2022-11-29T14:30:54.784Z,12.03
2022-11-29T14:33:47.501Z,12.82
2022-11-29T14:36:15.216Z,11.75
2022-11-29T14:38:45.364Z,12.07
2022-11-29T14:41:28.455Z,10.45
2022-11-29T14:44:26.268Z,12.95
2022-11-29T14:47:08.392Z,11.48
2022-11-29T14:49:41.054Z,12.50
2022-11-29T14:52:17.570Z,15.48
2022-11-29T14:55:08.045Z,14.80
2022-11-29T14:57:48.162Z,12.75
2022-11-29T15:00:19.464Z,12.05
2022-11-29T15:02:50.898Z,14.70
2022-11-29T15:07:52.034Z,11.50
2022-11-29T15:10:22.797Z,10.90
2022-11-29T15:12:50.713Z,10.07
2022-11-29T15:15:24.524Z,11.10
2022-11-29T15:18:14.773Z,10.88
2022-11-29T15:21:07.276Z,9.35
2022-11-29T15:23:42.669Z,15.05
2022-11-29T15:26:20.944Z,11.57
2022-11-29T15:28:48.665Z,10.60
2022-11-29T15:31:19.308Z,11.93
2022-11-29T15:33:48.091Z,11.55
2022-11-29T15:36:20.061Z,14.02
2022-11-29T15:38:49.740Z,12.10
2022-11-29T15:41:32.128Z,12.52
2022-11-29T15:44:04.725Z,11.60
2022-11-29T15:46:35.793Z,11.23
2022-11-29T15:49:26.056Z,11.52
2022-11-29T15:52:07.780Z,11.23
2022-11-29T15:54:37.976Z,12.73
2022-11-29T15:57:19.290Z,12.57
2022-11-29T15:59:48.393Z,13.35
2022-11-29T16:02:15.992Z,18.98
2022-11-29T16:04:46.769Z,14.02
2022-11-29T16:07:16.694Z,12.70
2022-11-29T16:09:50.329Z,14.77
2022-11-29T16:12:18.615Z,16.95
2022-11-29T16:14:59.820Z,14.88
2022-11-29T16:17:29.526Z,13.32
2022-11-29T16:20:13.716Z,13.75
